createdAt,value
2018-09-04T00:00:36.579Z,20.90
2018-09-04T00:03:04.521Z,20.90
2018-09-04T00:05:32.556Z,20.90
2018-09-04T00:08:00.660Z,20.90
2018-09-04T00:10:28.629Z,20.90
2018-09-04T00:12:56.615Z,20.80
2018-09-04T00:15:25.109Z,20.70
2018-09-04T00:17:53.152Z,20.70
2018-09-04T00:20:21.087Z,20.60
2018-09-04T00:22:50.024Z,20.60
2018-09-04T00:25:18.052Z,20.50
2018-09-04T00:27:46.111Z,20.50
2018-09-04T00:30:14.061Z,20.40
2018-09-04T00:32:42.007Z,20.40
2018-09-04T00:35:10.081Z,20.30
2018-09-04T00:37:38.035Z,20.30
2018-09-04T00:40:06.455Z,20.30
2018-09-04T00:42:34.541Z,20.30
2018-09-04T00:45:02.669Z,20.30
2018-09-04T00:47:30.699Z,20.30
2018-09-04T00:49:58.704Z,20.30
2018-09-04T00:52:26.769Z,20.30
2018-09-04T00:54:55.754Z,20.30
2018-09-04T00:57:23.700Z,20.30
2018-09-04T00:59:51.668Z,20.30
2018-09-04T01:02:19.713Z,20.20
2018-09-04T01:04:48.516Z,20.20
2018-09-04T01:07:17.136Z,20.30
2018-09-04T01:09:45.105Z,20.20
2018-09-04T01:12:13.055Z,20.10
2018-09-04T01:14:41.043Z,20.10
2018-09-04T01:17:09.008Z,20.10
2018-09-04T01:19:36.953Z,20.20
2018-09-04T01:22:05.230Z,20.20
2018-09-04T01:24:33.195Z,20.30
2018-09-04T01:27:01.143Z,20.30
2018-09-04T01:29:29.100Z,20.30
2018-09-04T01:31:57.098Z,20.20
2018-09-04T01:34:25.150Z,20.10
2018-09-04T01:36:53.224Z,19.90
2018-09-04T01:39:21.168Z,20.00
2018-09-04T01:41:49.151Z,20.00
2018-09-04T01:44:17.132Z,19.90
2018-09-04T01:46:45.215Z,19.90
2018-09-04T01:49:13.197Z,20.00
2018-09-04T01:51:41.195Z,20.00
2018-09-04T01:54:09.159Z,20.10
2018-09-04T01:56:37.136Z,20.10
2018-09-04T01:59:05.380Z,20.10
2018-09-04T02:01:33.602Z,20.00
2018-09-04T02:04:01.598Z,20.00
2018-09-04T02:06:29.575Z,19.80
2018-09-04T02:08:57.563Z,19.70
2018-09-04T02:11:25.555Z,19.70
2018-09-04T02:13:53.948Z,19.60
2018-09-04T02:16:21.901Z,19.50
2018-09-04T02:18:49.850Z,19.40
2018-09-04T02:21:17.820Z,19.40
2018-09-04T02:23:45.791Z,19.40
2018-09-04T02:26:13.867Z,19.40
2018-09-04T02:28:41.849Z,19.20
2018-09-04T02:31:09.797Z,19.20
2018-09-04T02:33:37.780Z,19.20
2018-09-04T02:36:05.869Z,19.30
2018-09-04T02:38:33.865Z,19.20
2018-09-04T02:41:01.852Z,19.20
2018-09-04T02:43:29.932Z,19.20
2018-09-04T02:45:57.904Z,19.20
2018-09-04T02:48:25.903Z,19.20
2018-09-04T02:50:53.896Z,19.20
2018-09-04T02:53:21.848Z,19.20
2018-09-04T02:55:49.935Z,19.20
2018-09-04T02:58:17.908Z,19.10
2018-09-04T03:00:45.854Z,19.10
2018-09-04T03:03:13.808Z,19.20
2018-09-04T03:05:41.760Z,19.00
2018-09-04T03:08:09.813Z,19.10
2018-09-04T03:10:37.748Z,19.10
2018-09-04T03:13:05.693Z,19.10
2018-09-04T03:15:33.635Z,19.00
2018-09-04T03:18:01.567Z,19.00
2018-09-04T03:20:29.727Z,19.00
2018-09-04T03:22:58.219Z,18.90
2018-09-04T03:25:26.180Z,18.80
2018-09-04T03:27:54.126Z,18.80
2018-09-04T03:30:22.103Z,18.80
2018-09-04T03:32:50.100Z,18.90
2018-09-04T03:35:18.136Z,18.80
2018-09-04T03:37:46.065Z,18.80
2018-09-04T03:40:14.056Z,18.90
2018-09-04T03:42:42.264Z,18.90
2018-09-04T03:45:10.569Z,18.80
2018-09-04T03:47:38.764Z,18.80
2018-09-04T03:50:06.945Z,18.70
2018-09-04T03:52:35.118Z,18.70
2018-09-04T03:55:03.230Z,18.60
2018-09-04T03:57:31.157Z,18.50
2018-09-04T03:59:59.189Z,18.50
2018-09-04T04:02:27.350Z,18.50
2018-09-04T04:04:55.398Z,18.40
2018-09-04T04:07:23.443Z,18.50
2018-09-04T04:09:51.404Z,18.60
2018-09-04T04:12:19.383Z,18.40
2018-09-04T04:14:47.496Z,18.40
2018-09-04T04:17:15.424Z,18.40
2018-09-04T04:19:43.445Z,18.40
2018-09-04T04:22:11.364Z,18.50
2018-09-04T04:24:39.383Z,18.40
2018-09-04T04:27:07.328Z,18.30
2018-09-04T04:29:35.263Z,18.30
2018-09-04T04:32:03.239Z,18.20
2018-09-04T04:34:31.208Z,18.10
2018-09-04T04:36:59.277Z,18.20
2018-09-04T04:39:27.290Z,18.10
2018-09-04T04:41:55.265Z,18.20
2018-09-04T04:44:23.213Z,18.20
2018-09-04T04:46:51.161Z,18.10
2018-09-04T04:49:19.121Z,18.00
2018-09-04T04:51:47.080Z,18.00
2018-09-04T04:54:15.063Z,18.00
2018-09-04T04:56:43.021Z,18.00
2018-09-04T04:59:11.029Z,18.10
2018-09-04T05:01:39.030Z,18.20
2018-09-04T05:04:07.232Z,18.20
2018-09-04T05:06:35.180Z,18.10
2018-09-04T05:09:03.828Z,18.10
2018-09-04T05:11:31.973Z,17.90
2018-09-04T05:13:59.943Z,17.90
2018-09-04T05:16:28.040Z,18.00
2018-09-04T05:18:56.035Z,18.00
2018-09-04T05:21:24.093Z,18.00
2018-09-04T05:23:52.073Z,18.00
2018-09-04T05:26:20.009Z,18.00
2018-09-04T05:28:47.992Z,18.00
2018-09-04T05:31:15.984Z,17.80
2018-09-04T05:33:45.228Z,18.00
2018-09-04T05:36:13.524Z,18.00
2018-09-04T05:38:41.600Z,17.90
2018-09-04T05:41:09.780Z,18.00
2018-09-04T05:43:56.304Z,18.00
2018-09-04T05:46:31.840Z,17.90
2018-09-04T05:49:00.664Z,17.90
2018-09-04T05:51:28.686Z,17.90
2018-09-04T05:53:56.825Z,17.90
2018-09-04T05:56:24.824Z,18.00
2018-09-04T05:58:52.839Z,18.10
2018-09-04T06:01:20.816Z,18.10
2018-09-04T06:03:48.788Z,18.10
2018-09-04T06:06:23.191Z,18.00
2018-09-04T06:08:54.721Z,18.00
2018-09-04T06:11:22.724Z,18.10
2018-09-04T06:13:50.764Z,18.20
2018-09-04T06:16:18.695Z,18.40
2018-09-04T06:18:46.640Z,18.30
2018-09-04T06:21:14.656Z,18.40
2018-09-04T06:23:42.620Z,18.20
2018-09-04T06:26:10.590Z,18.20
2018-09-04T06:28:38.576Z,18.20
2018-09-04T06:31:06.538Z,18.30
2018-09-04T06:33:34.552Z,18.40
2018-09-04T06:36:02.465Z,18.30
2018-09-04T06:38:31.046Z,18.40
2018-09-04T06:40:59.040Z,18.50
2018-09-04T06:43:26.987Z,18.50
2018-09-04T06:45:54.969Z,18.50
2018-09-04T06:48:22.961Z,18.60
2018-09-04T06:50:50.883Z,18.50
2018-09-04T06:53:18.883Z,18.50
2018-09-04T06:55:46.827Z,18.60
2018-09-04T06:58:15.016Z,18.70
2018-09-04T07:00:42.973Z,18.70
2018-09-04T07:03:10.939Z,18.80
2018-09-04T07:05:38.928Z,18.90
2018-09-04T07:08:07.075Z,19.00
2018-09-04T07:10:35.067Z,19.10
2018-09-04T07:13:03.016Z,19.00
2018-09-04T07:15:31.494Z,19.00
2018-09-04T07:17:59.472Z,19.00
2018-09-04T07:20:27.453Z,18.90
2018-09-04T07:22:55.474Z,19.20
2018-09-04T07:25:23.458Z,19.30
2018-09-04T07:27:51.434Z,19.40
2018-09-04T07:30:19.384Z,19.30
2018-09-04T07:32:47.419Z,19.30
2018-09-04T07:35:15.353Z,19.40
2018-09-04T07:37:43.332Z,19.40
2018-09-04T07:40:11.289Z,19.40
2018-09-04T07:42:39.569Z,19.40
2018-09-04T07:45:08.160Z,19.60
2018-09-04T07:47:36.147Z,19.70
2018-09-04T07:50:04.314Z,19.70
2018-09-04T07:52:32.279Z,19.70
2018-09-04T07:55:00.263Z,19.70
2018-09-04T07:57:28.244Z,19.90
2018-09-04T07:59:56.448Z,19.90
2018-09-04T08:02:24.461Z,20.10
2018-09-04T08:04:52.395Z,20.20
2018-09-04T08:07:20.380Z,20.20
2018-09-04T08:12:22.903Z,20.20
2018-09-04T08:14:50.840Z,20.30
2018-09-04T08:17:18.792Z,20.30
2018-09-04T08:19:46.868Z,20.50
2018-09-04T08:22:14.825Z,20.50
2018-09-04T08:24:42.829Z,20.60
2018-09-04T08:27:10.766Z,20.90
2018-09-04T08:29:38.736Z,21.00
2018-09-04T08:32:06.976Z,21.00
2018-09-04T08:34:34.916Z,21.10
2018-09-04T08:37:02.849Z,21.10
2018-09-04T08:40:02.110Z,21.10
2018-09-04T08:42:30.021Z,21.30
2018-09-04T08:44:58.037Z,21.40
2018-09-04T08:47:26.264Z,21.40
2018-09-04T08:49:54.184Z,21.60
2018-09-04T08:52:22.124Z,21.70
2018-09-04T08:54:50.064Z,21.70
2018-09-04T08:57:18.012Z,21.80
2018-09-04T08:59:46.002Z,22.00
2018-09-04T09:02:13.937Z,21.80
2018-09-04T09:04:41.881Z,21.90
2018-09-04T09:07:10.971Z,22.10
2018-09-04T09:09:38.929Z,21.90
2018-09-04T09:12:06.888Z,22.10
2018-09-04T09:14:34.940Z,22.10
2018-09-04T09:17:03.228Z,22.10
2018-09-04T09:19:31.253Z,22.20
2018-09-04T09:21:59.300Z,22.30
2018-09-04T09:24:27.308Z,22.40
2018-09-04T09:26:55.333Z,22.40
2018-09-04T09:29:23.275Z,22.50
2018-09-04T09:31:51.244Z,22.40
2018-09-04T09:34:19.203Z,22.70
2018-09-04T09:36:47.511Z,22.80
2018-09-04T09:39:15.320Z,22.50
2018-09-04T09:41:43.269Z,22.60
2018-09-04T09:44:11.304Z,22.60
2018-09-04T09:46:39.232Z,22.70
2018-09-04T09:49:07.205Z,22.60
2018-09-04T09:51:35.264Z,22.70
2018-09-04T09:54:04.701Z,22.90
2018-09-04T09:56:32.824Z,22.90
2018-09-04T09:59:01.256Z,22.90
2018-09-04T10:01:36.502Z,22.80
2018-09-04T10:04:06.117Z,22.90
2018-09-04T10:06:34.090Z,23.00
2018-09-04T10:09:02.086Z,23.10
2018-09-04T10:11:30.028Z,23.10
2018-09-04T10:13:58.015Z,23.40
2018-09-04T10:16:26.119Z,23.30
2018-09-04T10:18:54.349Z,23.40
2018-09-04T10:21:22.307Z,23.60
2018-09-04T10:23:50.261Z,23.60
2018-09-04T10:26:18.273Z,23.70
2018-09-04T10:28:46.229Z,23.90
2018-09-04T10:31:14.164Z,24.10
2018-09-04T10:33:42.155Z,24.00
2018-09-04T10:36:10.181Z,23.70
2018-09-04T10:38:38.267Z,23.90
2018-09-04T10:41:09.958Z,24.00
2018-09-04T10:43:37.919Z,23.90
2018-09-04T10:46:08.556Z,24.00
2018-09-04T10:48:36.634Z,24.10
2018-09-04T10:51:04.728Z,24.10
2018-09-04T10:53:32.684Z,24.00
2018-09-04T10:56:00.649Z,24.20
2018-09-04T10:58:28.818Z,24.30
2018-09-04T11:00:56.780Z,24.50
2018-09-04T11:03:24.762Z,24.50
2018-09-04T11:05:52.914Z,24.60
2018-09-04T11:08:20.998Z,24.80
2018-09-04T11:10:49.186Z,24.70
2018-09-04T11:13:17.192Z,24.70
2018-09-04T11:15:45.164Z,24.60
2018-09-04T11:18:13.148Z,24.80
2018-09-04T11:20:41.161Z,24.70
2018-09-04T11:23:09.130Z,24.70
2018-09-04T11:25:37.104Z,25.00
2018-09-04T11:28:05.899Z,25.10
2018-09-04T11:30:33.878Z,25.60
2018-09-04T11:33:01.974Z,25.80
2018-09-04T11:35:30.020Z,26.20
2018-09-04T11:37:57.992Z,26.10
2018-09-04T11:40:26.103Z,26.70
2018-09-04T11:42:54.062Z,27.90
2018-09-04T11:45:22.000Z,28.40
2018-09-04T11:47:49.984Z,28.90
2018-09-04T11:50:17.935Z,29.00
2018-09-04T11:52:45.984Z,29.60
2018-09-04T11:55:13.992Z,31.20
2018-09-04T11:57:42.252Z,31.80
2018-09-04T12:00:15.105Z,33.20
2018-09-04T12:02:43.063Z,31.80
2018-09-04T12:05:11.032Z,32.60
2018-09-04T12:07:39.209Z,32.40
2018-09-04T12:10:07.516Z,33.30
2018-09-04T12:12:36.462Z,32.50
2018-09-04T12:15:04.295Z,33.40
2018-09-04T12:17:32.332Z,33.90
2018-09-04T12:20:08.314Z,34.90
2018-09-04T12:22:36.297Z,36.70
2018-09-04T12:25:04.324Z,37.40
2018-09-04T12:27:32.581Z,37.90
2018-09-04T12:30:00.610Z,37.80
2018-09-04T12:32:28.787Z,35.60
2018-09-04T12:34:56.804Z,33.60
2018-09-04T12:37:25.058Z,35.70
2018-09-04T12:39:57.105Z,37.40
2018-09-04T12:42:26.848Z,37.50
2018-09-04T12:44:55.834Z,38.30
2018-09-04T12:47:23.838Z,38.40
2018-09-04T12:49:51.802Z,35.90
2018-09-04T12:52:19.811Z,36.10
2018-09-04T12:54:47.880Z,34.50
2018-09-04T12:57:15.816Z,33.60
2018-09-04T12:59:43.843Z,32.00
2018-09-04T13:02:11.776Z,32.00
2018-09-04T13:04:39.744Z,32.50
2018-09-04T13:07:07.787Z,34.20
2018-09-04T13:09:36.757Z,36.30
2018-09-04T13:12:04.834Z,37.10
2018-09-04T13:14:32.920Z,38.60
2018-09-04T13:17:04.808Z,38.50
2018-09-04T13:19:33.627Z,39.30
2018-09-04T13:22:01.794Z,39.90
2018-09-04T13:24:29.967Z,39.50
2018-09-04T13:26:57.976Z,40.60
2018-09-04T13:29:26.570Z,41.70
2018-09-04T13:31:54.595Z,40.30
2018-09-04T13:34:24.533Z,39.10
2018-09-04T13:36:52.604Z,39.40
2018-09-04T13:39:20.782Z,40.40
2018-09-04T13:41:48.880Z,40.80
2018-09-04T13:44:17.035Z,38.10
2018-09-04T13:46:45.144Z,36.70
2018-09-04T13:49:13.352Z,35.40
2018-09-04T13:51:41.349Z,36.40
2018-09-04T13:54:10.136Z,36.90
2018-09-04T13:56:38.415Z,36.40
2018-09-04T13:59:06.805Z,37.30
2018-09-04T14:01:35.378Z,35.60
2018-09-04T14:04:03.503Z,34.50
2018-09-04T14:06:31.428Z,36.00
2018-09-04T14:08:59.460Z,35.90
2018-09-04T14:11:27.657Z,36.20
2018-09-04T14:13:55.764Z,37.50
2018-09-04T14:16:25.160Z,38.20
2018-09-04T14:18:53.262Z,38.10
2018-09-04T14:21:21.285Z,37.90
2018-09-04T14:23:49.439Z,36.40
2018-09-04T14:26:17.612Z,36.10
2018-09-04T14:28:45.584Z,36.60
2018-09-04T14:31:13.516Z,37.10
2018-09-04T14:33:41.520Z,36.90
2018-09-04T14:36:09.673Z,36.50
2018-09-04T14:38:38.148Z,36.00
2018-09-04T14:41:06.300Z,35.40
2018-09-04T14:43:34.283Z,35.30
2018-09-04T14:46:02.561Z,36.60
2018-09-04T14:48:30.635Z,35.50
2018-09-04T14:50:58.637Z,36.00
2018-09-04T14:53:26.693Z,36.00
2018-09-04T14:55:54.677Z,36.40
2018-09-04T14:58:22.641Z,36.10
2018-09-04T15:00:50.586Z,36.40
2018-09-04T15:03:18.575Z,36.30
2018-09-04T15:05:46.650Z,35.80
2018-09-04T15:08:14.722Z,36.10
2018-09-04T15:10:42.712Z,34.60
2018-09-04T15:13:10.691Z,33.40
2018-09-04T15:15:38.697Z,33.10
2018-09-04T15:18:06.721Z,33.40
2018-09-04T15:20:34.696Z,34.10
2018-09-04T15:23:02.886Z,34.10
2018-09-04T15:25:31.058Z,31.80
2018-09-04T15:27:59.112Z,31.50
2018-09-04T15:30:27.191Z,31.60
2018-09-04T15:32:55.252Z,32.60
2018-09-04T15:35:23.411Z,33.90
2018-09-04T15:37:51.375Z,34.60
2018-09-04T15:40:19.478Z,33.70
2018-09-04T15:42:47.454Z,32.60
2018-09-04T15:45:15.461Z,32.00
2018-09-04T15:47:43.465Z,32.20
2018-09-04T15:50:11.425Z,32.80
2018-09-04T15:52:39.492Z,31.90
2018-09-04T15:55:07.443Z,31.40
2018-09-04T15:57:35.438Z,31.40
2018-09-04T16:00:03.672Z,31.40
2018-09-04T16:02:31.653Z,31.10
2018-09-04T16:04:59.693Z,31.40
2018-09-04T16:07:27.668Z,31.80
2018-09-04T16:09:55.880Z,31.90
2018-09-04T16:12:23.824Z,31.30
2018-09-04T16:14:51.863Z,30.90
2018-09-04T16:17:19.816Z,31.30
2018-09-04T16:19:47.763Z,31.70
2018-09-04T16:22:15.695Z,30.80
2018-09-04T16:24:43.737Z,30.80
2018-09-04T16:27:11.615Z,30.50
2018-09-04T16:29:39.843Z,30.90
2018-09-04T16:32:07.783Z,31.10
2018-09-04T16:34:35.954Z,30.30
2018-09-04T16:37:03.839Z,29.80
2018-09-04T16:39:31.997Z,30.10
2018-09-04T16:42:00.941Z,30.00
2018-09-04T16:44:29.112Z,30.00
2018-09-04T16:46:57.300Z,29.90
2018-09-04T16:49:25.292Z,30.30
2018-09-04T16:51:53.514Z,30.20
2018-09-04T16:54:22.794Z,30.40
2018-09-04T16:56:50.993Z,30.50
2018-09-04T16:59:18.951Z,30.50
2018-09-04T17:01:46.929Z,29.70
2018-09-04T17:04:15.020Z,29.20
2018-09-04T17:06:43.374Z,28.70
2018-09-04T17:09:12.267Z,28.30
2018-09-04T17:11:41.712Z,27.40
2018-09-04T17:14:10.500Z,27.00
2018-09-04T17:16:38.453Z,26.70
2018-09-04T17:19:06.809Z,26.50
2018-09-04T17:21:34.996Z,26.40
2018-09-04T17:24:02.967Z,26.40
2018-09-04T17:26:31.090Z,26.40
2018-09-04T17:28:59.112Z,26.30
2018-09-04T17:31:27.372Z,26.20
2018-09-04T17:33:55.376Z,26.10
2018-09-04T17:36:23.408Z,26.10
2018-09-04T17:38:51.402Z,25.90
2018-09-04T17:41:19.360Z,25.90
2018-09-04T17:43:47.306Z,25.90
2018-09-04T17:46:15.287Z,25.90
2018-09-04T17:48:43.212Z,25.90
2018-09-04T17:51:11.240Z,25.90
2018-09-04T17:53:39.268Z,25.90
2018-09-04T17:56:07.276Z,25.90
2018-09-04T17:58:35.221Z,25.80
2018-09-04T18:01:04.547Z,25.80
2018-09-04T18:03:32.712Z,25.50
2018-09-04T18:06:00.813Z,25.40
2018-09-04T18:08:28.783Z,25.30
2018-09-04T18:10:56.753Z,25.20
2018-09-04T18:13:24.748Z,25.00
2018-09-04T18:15:52.703Z,24.80
2018-09-04T18:18:20.726Z,24.70
2018-09-04T18:20:48.663Z,24.60
2018-09-04T18:23:16.699Z,24.50
2018-09-04T18:25:44.621Z,24.40
2018-09-04T18:28:12.599Z,24.40
2018-09-04T18:30:41.456Z,24.30
2018-09-04T18:33:09.527Z,24.30
2018-09-04T18:35:37.604Z,24.30
2018-09-04T18:38:05.560Z,24.20
2018-09-04T18:40:33.512Z,24.10
2018-09-04T18:43:01.480Z,24.10
2018-09-04T18:45:41.040Z,24.00
2018-09-04T18:48:08.990Z,23.90
2018-09-04T18:50:36.931Z,23.90
2018-09-04T18:53:06.160Z,23.80
2018-09-04T18:55:34.300Z,23.70
2018-09-04T18:58:03.610Z,23.70
2018-09-04T19:00:31.859Z,23.70
2018-09-04T19:02:59.953Z,23.60
2018-09-04T19:05:27.947Z,23.50
2018-09-04T19:07:56.016Z,23.50
2018-09-04T19:10:23.961Z,23.50
2018-09-04T19:12:52.038Z,23.40
2018-09-04T19:15:20.056Z,23.40
2018-09-04T19:17:48.026Z,23.40
2018-09-04T19:20:16.081Z,23.30
2018-09-04T19:22:43.984Z,23.20
2018-09-04T19:25:12.388Z,23.20
2018-09-04T19:27:40.352Z,23.20
2018-09-04T19:30:08.292Z,23.10
2018-09-04T19:32:36.264Z,23.10
2018-09-04T19:35:04.254Z,23.00
2018-09-04T19:37:32.288Z,23.00
2018-09-04T19:40:00.198Z,23.00
2018-09-04T19:42:28.219Z,23.00
2018-09-04T19:44:56.252Z,22.90
2018-09-04T19:47:24.247Z,22.90
2018-09-04T19:49:52.237Z,22.90
2018-09-04T19:52:20.163Z,22.80
2018-09-04T19:54:48.099Z,22.80
2018-09-04T19:57:16.192Z,22.70
2018-09-04T19:59:44.129Z,22.70
2018-09-04T20:02:13.028Z,22.60
2018-09-04T20:04:41.120Z,22.60
2018-09-04T20:07:09.036Z,22.60
2018-09-04T20:09:37.012Z,22.50
2018-09-04T20:12:04.971Z,22.50
2018-09-04T20:14:32.973Z,22.50
2018-09-04T20:17:01.034Z,22.50
2018-09-04T20:19:29.030Z,22.40
2018-09-04T20:21:57.025Z,22.40
2018-09-04T20:24:25.168Z,22.30
2018-09-04T20:26:53.063Z,22.30
2018-09-04T20:29:20.999Z,22.30
2018-09-04T20:31:48.924Z,22.20
2018-09-04T20:34:16.985Z,22.20
2018-09-04T20:36:45.048Z,22.10
2018-09-04T20:39:13.683Z,22.10
2018-09-04T20:41:41.711Z,22.00
2018-09-04T20:44:09.923Z,22.00
2018-09-04T20:46:37.967Z,21.90
2018-09-04T20:49:05.928Z,21.80
2018-09-04T20:51:33.983Z,21.90
2018-09-04T20:54:01.963Z,21.80
2018-09-04T20:56:29.970Z,21.80
2018-09-04T20:59:09.596Z,21.70
2018-09-04T21:01:49.189Z,21.70
2018-09-04T21:04:28.913Z,21.60
2018-09-04T21:06:56.380Z,21.50
2018-09-04T21:09:34.464Z,21.40
2018-09-04T21:12:02.457Z,21.40
2018-09-04T21:14:30.426Z,21.40
2018-09-04T21:16:58.399Z,21.30
2018-09-04T21:19:26.466Z,21.30
2018-09-04T21:21:54.415Z,21.20
2018-09-04T21:24:22.373Z,21.20
2018-09-04T21:26:50.348Z,21.20
2018-09-04T21:29:18.328Z,21.10
2018-09-04T21:31:46.337Z,21.10
2018-09-04T21:34:14.417Z,21.10
2018-09-04T21:36:42.427Z,21.00
2018-09-04T21:39:11.093Z,21.00
2018-09-04T21:41:39.364Z,21.00
2018-09-04T21:44:07.316Z,20.90
2018-09-04T21:46:35.596Z,20.80
2018-09-04T21:49:03.656Z,20.90
2018-09-04T21:51:31.674Z,20.80
2018-09-04T21:53:59.688Z,20.80
2018-09-04T21:56:27.723Z,20.80
2018-09-04T21:58:55.968Z,20.70
2018-09-04T22:01:23.971Z,20.70
2018-09-04T22:03:52.434Z,20.70
2018-09-04T22:06:20.408Z,20.70
2018-09-04T22:08:48.708Z,20.60
2018-09-04T22:11:16.684Z,20.50
2018-09-04T22:13:45.008Z,20.60
2018-09-04T22:16:13.061Z,20.70
2018-09-04T22:18:41.049Z,20.60
2018-09-04T22:21:09.009Z,20.40
2018-09-04T22:23:37.420Z,20.50
2018-09-04T22:26:05.903Z,20.50
2018-09-04T22:28:33.990Z,20.40
2018-09-04T22:31:01.960Z,20.50
2018-09-04T22:33:29.977Z,20.50
2018-09-04T22:35:57.985Z,20.50
2018-09-04T22:38:26.000Z,20.50
2018-09-04T22:40:53.987Z,20.40
2018-09-04T22:43:21.937Z,20.30
2018-09-04T22:45:49.955Z,20.30
2018-09-04T22:48:17.904Z,20.30
2018-09-04T22:50:51.354Z,20.40
2018-09-04T22:53:19.443Z,20.30
2018-09-04T22:55:47.732Z,20.20
2018-09-04T22:58:15.941Z,20.10
2018-09-04T23:00:43.895Z,20.10
2018-09-04T23:03:11.859Z,20.40
2018-09-04T23:05:39.847Z,20.40
2018-09-04T23:08:07.829Z,20.20
2018-09-04T23:10:35.785Z,20.10
2018-09-04T23:13:03.740Z,20.10
2018-09-04T23:15:31.676Z,20.10
2018-09-04T23:17:59.753Z,20.10
2018-09-04T23:20:27.740Z,20.10
2018-09-04T23:22:55.717Z,20.10
2018-09-04T23:25:23.663Z,20.10
2018-09-04T23:27:51.659Z,20.30
2018-09-04T23:30:19.604Z,20.10
2018-09-04T23:32:47.553Z,20.00
2018-09-04T23:35:16.272Z,19.80
2018-09-04T23:37:44.357Z,19.80
2018-09-04T23:40:12.357Z,19.90
2018-09-04T23:42:40.338Z,19.70
2018-09-04T23:45:08.273Z,19.80
2018-09-04T23:47:36.328Z,19.80
2018-09-04T23:50:06.392Z,19.70
2018-09-04T23:52:34.353Z,19.80
2018-09-04T23:55:02.456Z,19.60
2018-09-04T23:57:30.451Z,19.70
2018-09-04T23:59:58.512Z,19.60
